Time;durP1;ratioP1;P1;durP2;ratioP2;P2;SDS_P1;SDS_P2;PMS_P1;PMS_P2;Temp;Humidity;BMP_temperature;BMP_pressure;BME280_temperature;BME280_humidity;BME280_pressure;Samples;Min_cycle;Max_cycle;Signal;HPM_P1;HPM_P2
2022/02/20 00:01:53;;;;;;;4.72;1.23;;;5.80;1.00;;;;;;7362612;19;20006;-60
2022/02/20 00:18:51;;;;;;;7.10;1.23;;;5.50;1.00;;;;;;7356729;19;20014;-60
2022/02/20 00:21:40;;;;;;;10.40;2.10;;;5.40;1.00;;;;;;7363858;19;20023;-60
2022/02/20 00:24:29;;;;;;;3.38;1.20;;;5.30;1.00;;;;;;7363948;19;20021;-61
2022/02/20 00:27:18;;;;;;;4.78;1.50;;;5.30;1.00;;;;;;7357243;19;20477;-61
2022/02/20 00:30:08;;;;;;;4.05;1.08;;;5.20;1.00;;;;;;7358883;19;20028;-62
2022/02/20 00:33:00;;;;;;;4.80;1.00;;;5.20;1.00;;;;;;7361528;19;20017;-62
2022/02/20 00:35:51;;;;;;;3.90;1.20;;;5.20;1.00;;;;;;7383087;19;20025;-61
2022/02/20 00:38:40;;;;;;;6.97;1.45;;;5.20;1.00;;;;;;7355579;19;20104;-61
2022/02/20 00:41:28;;;;;;;4.72;1.08;;;5.20;1.00;;;;;;7362146;19;20042;-61
2022/02/20 00:44:18;;;;;;;4.88;1.13;;;5.10;1.00;;;;;;7362279;19;20367;-61
2022/02/20 00:47:06;;;;;;;3.72;1.45;;;5.10;1.00;;;;;;7360024;19;20489;-61
2022/02/20 00:49:55;;;;;;;6.22;1.30;;;5.10;1.00;;;;;;7356885;19;20014;-61
2022/02/20 00:52:27;;;;;;;4.65;1.10;;;5.00;1.00;;;;;;7359592;19;20013;-61
2022/02/20 00:54:57;;;;;;;5.43;1.35;;;5.00;1.00;;;;;;7361031;19;20015;-61
2022/02/20 00:57:41;;;;;;;6.28;1.92;;;5.00;1.00;;;;;;7357447;19;20487;-61
2022/02/20 01:00:29;;;;;;;4.05;1.17;;;5.00;1.00;;;;;;7359848;19;20038;-61
2022/02/20 01:02:59;;;;;;;2.75;1.15;;;5.00;1.00;;;;;;7357794;19;20019;-61
2022/02/20 01:05:29;;;;;;;3.30;1.45;;;5.10;1.00;;;;;;7381397;19;20015;-61
2022/02/20 01:08:02;;;;;;;5.32;1.35;;;5.00;1.00;;;;;;7355561;19;20093;-61
2022/02/20 01:10:32;;;;;;;4.13;1.05;;;5.10;1.00;;;;;;7361903;19;20054;-61
2022/02/20 01:13:02;;;;;;;4.10;1.13;;;5.10;1.00;;;;;;7367708;19;20011;-61
2022/02/20 01:15:50;;;;;;;6.65;1.30;;;5.10;1.00;;;;;;7368682;19;20017;-61
2022/02/20 01:18:39;;;;;;;3.03;1.55;;;5.00;1.00;;;;;;7361455;19;20021;-61
2022/02/20 01:21:27;;;;;;;4.68;0.95;;;5.10;1.00;;;;;;7367854;19;20013;-61
2022/02/20 01:24:18;;;;;;;4.45;0.80;;;5.10;1.00;;;;;;7369435;19;20375;-61
2022/02/20 01:27:07;;;;;;;3.00;1.05;;;5.10;1.00;;;;;;7366397;19;20029;-61
2022/02/20 01:29:56;;;;;;;2.78;1.17;;;5.10;1.00;;;;;;7362806;19;20022;-61
2022/02/20 01:32:45;;;;;;;4.88;1.20;;;5.10;1.00;;;;;;7391672;19;20041;-61
2022/02/20 01:35:34;;;;;;;4.40;1.13;;;5.10;1.00;;;;;;7367068;19;20027;-61
2022/02/20 01:38:23;;;;;;;5.43;1.55;;;5.10;1.00;;;;;;7361089;19;20054;-61
2022/02/20 01:41:19;;;;;;;3.72;1.42;;;5.10;1.00;;;;;;7362701;19;20034;-61
2022/02/20 01:44:08;;;;;;;5.38;1.40;;;5.20;1.00;;;;;;7366944;19;20111;-60
2022/02/20 01:47:05;;;;;;;7.35;1.65;;;5.20;1.00;;;;;;7363663;19;20018;-61
2022/02/20 01:49:54;;;;;;;5.55;1.42;;;5.20;1.00;;;;;;7361071;19;20462;-60
2022/02/20 01:52:47;;;;;;;8.93;1.27;;;5.20;1.00;;;;;;7366337;19;20017;-61
2022/02/20 01:55:36;;;;;;;4.50;1.50;;;5.20;1.00;;;;;;7368356;19;20031;-61
2022/02/20 01:58:27;;;;;;;3.13;1.40;;;5.30;1.00;;;;;;7363171;19;20034;-60
2022/02/20 02:01:16;;;;;;;7.63;1.13;;;5.30;1.00;;;;;;7365226;19;20507;-60
2022/02/20 02:04:08;;;;;;;7.32;1.15;;;5.40;1.00;;;;;;7366166;19;20508;-61
2022/02/20 02:06:57;;;;;;;5.95;1.17;;;5.30;1.00;;;;;;7364406;19;20037;-61
2022/02/20 02:09:45;;;;;;;5.43;1.13;;;5.30;1.00;;;;;;7361045;19;20016;-60
2022/02/20 02:12:34;;;;;;;4.25;1.20;;;5.40;1.00;;;;;;7367857;19;20021;-60
2022/02/20 02:15:25;;;;;;;4.30;1.20;;;5.40;1.00;;;;;;7368992;19;20021;-60
2022/02/20 02:18:14;;;;;;;3.33;1.02;;;5.40;1.00;;;;;;7360832;19;20021;-62
2022/02/20 02:21:02;;;;;;;4.30;1.25;;;5.40;1.00;;;;;;7362492;19;20018;-60
2022/02/20 02:23:35;;;;;;;7.00;1.33;;;5.40;1.00;;;;;;7383650;19;20070;-60
2022/02/20 02:26:05;;;;;;;4.97;0.90;;;5.40;1.00;;;;;;7363105;19;20014;-61
2022/02/20 02:28:36;;;;;;;7.97;1.15;;;5.40;1.00;;;;;;7359835;19;20014;-61
2022/02/20 02:31:06;;;;;;;3.10;1.15;;;5.50;1.00;;;;;;7364065;19;20021;-61
2022/02/20 02:33:37;;;;;;;4.97;1.20;;;5.50;1.00;;;;;;7363185;19;20118;-61
2022/02/20 02:36:10;;;;;;;2.78;1.10;;;5.50;1.00;;;;;;7363599;19;20023;-60
2022/02/20 02:38:43;;;;;;;4.00;1.27;;;5.50;1.00;;;;;;7379985;19;20085;-60
2022/02/20 02:41:12;;;;;;;2.85;1.30;;;5.50;1.00;;;;;;7362909;19;20028;-60
2022/02/20 02:43:43;;;;;;;3.38;0.80;;;5.50;1.00;;;;;;7363495;19;20077;-59
2022/02/20 02:46:13;;;;;;;3.75;1.02;;;5.60;1.00;;;;;;7364107;19;20020;-60
2022/02/20 02:48:48;;;;;;;4.40;0.93;;;5.60;1.00;;;;;;7357853;19;20006;-60
2022/02/20 02:51:18;;;;;;;5.38;1.27;;;5.70;1.00;;;;;;7364709;19;20647;-60
2022/02/20 02:53:51;;;;;;;4.68;1.25;;;5.60;1.00;;;;;;7386141;19;20093;-59
2022/02/20 02:56:21;;;;;;;1.88;0.65;;;5.60;1.00;;;;;;7362334;19;20078;-60
2022/02/20 02:58:51;;;;;;;4.40;1.10;;;5.60;1.00;;;;;;7360612;19;20014;-60
2022/02/20 03:01:21;;;;;;;5.55;1.23;;;5.60;1.00;;;;;;7364895;19;20010;-60
2022/02/20 03:03:50;;;;;;;4.75;1.20;;;5.60;1.00;;;;;;7365000;19;20432;-60
2022/02/20 03:06:21;;;;;;;3.17;0.93;;;5.70;1.00;;;;;;7366075;19;20474;-60
2022/02/20 03:08:54;;;;;;;5.15;1.38;;;5.60;1.00;;;;;;7382199;19;20022;-60
2022/02/20 03:11:24;;;;;;;4.55;0.88;;;5.60;1.00;;;;;;7364259;19;20459;-60
2022/02/20 03:13:54;;;;;;;2.78;0.90;;;5.70;1.00;;;;;;7364560;19;20006;-60
2022/02/20 03:16:23;;;;;;;4.70;1.10;;;5.70;1.00;;;;;;7366753;19;20077;-59
2022/02/20 03:18:53;;;;;;;4.60;1.20;;;5.60;1.00;;;;;;7359678;19;20095;-60
2022/02/20 03:21:23;;;;;;;5.30;1.50;;;5.60;1.00;;;;;;7380286;19;20031;-61
2022/02/20 03:23:56;;;;;;;7.72;1.73;;;5.60;1.00;;;;;;7364584;19;20037;-60
2022/02/20 03:26:29;;;;;;;5.10;0.98;;;5.60;1.00;;;;;;7366099;19;20111;-59
2022/02/20 03:28:59;;;;;;;5.32;0.82;;;5.70;1.00;;;;;;7358482;19;20018;-60
2022/02/20 03:31:29;;;;;;;3.42;0.70;;;5.70;1.00;;;;;;7362276;19;20014;-59
2022/02/20 03:33:59;;;;;;;2.65;0.98;;;5.70;1.00;;;;;;7361016;19;20074;-60
2022/02/20 03:36:31;;;;;;;3.85;1.17;;;5.70;1.00;;;;;;7365612;19;20010;-60
2022/02/20 03:39:03;;;;;;;4.28;1.20;;;5.70;1.00;;;;;;7358658;19;20018;-61
2022/02/20 03:41:33;;;;;;;2.17;1.10;;;5.70;1.00;;;;;;7384686;19;20014;-60
2022/02/20 03:44:22;;;;;;;3.42;1.02;;;5.70;1.00;;;;;;7362358;19;20367;-60
2022/02/20 03:47:11;;;;;;;3.83;0.90;;;5.80;1.00;;;;;;7363041;19;20021;-59
2022/02/20 03:49:59;;;;;;;5.88;1.40;;;5.80;1.00;;;;;;7356597;19;20031;-60
2022/02/20 03:52:48;;;;;;;3.08;1.02;;;5.80;1.00;;;;;;7363336;19;20021;-60
2022/02/20 03:55:40;;;;;;;3.10;1.10;;;5.70;1.00;;;;;;7365734;19;20228;-60
2022/02/20 03:58:10;;;;;;;2.33;0.80;;;5.70;1.00;;;;;;7361936;19;20493;-60
2022/02/20 04:00:40;;;;;;;1.75;0.65;;;5.70;1.00;;;;;;7358601;19;20018;-61
2022/02/20 04:03:10;;;;;;;2.28;1.13;;;5.70;1.00;;;;;;7362408;19;20018;-60
2022/02/20 04:05:40;;;;;;;1.90;0.68;;;5.70;1.00;;;;;;7386820;19;20022;-60
2022/02/20 04:08:11;;;;;;;4.75;0.90;;;5.70;1.00;;;;;;7362485;19;20013;-61
2022/02/20 04:10:44;;;;;;;2.70;0.90;;;5.60;1.00;;;;;;7357425;19;21018;-61
2022/02/20 04:13:14;;;;;;;4.00;1.23;;;5.70;1.00;;;;;;7363011;19;20014;-61
2022/02/20 04:15:44;;;;;;;2.90;1.00;;;5.60;1.00;;;;;;7364266;19;20026;-60
2022/02/20 04:18:14;;;;;;;3.67;0.80;;;5.70;1.00;;;;;;7363728;19;20137;-60
2022/02/20 04:20:44;;;;;;;3.45;1.10;;;5.70;1.00;;;;;;7378563;19;20039;-59
2022/02/20 04:23:34;;;;;;;4.80;0.70;;;5.70;1.60;;;;;;7360289;19;20021;-60
2022/02/20 04:26:25;;;;;;;3.10;0.70;;;5.50;3.00;;;;;;7361568;19;20351;-60
2022/02/20 04:28:56;;;;;;;1.35;0.60;;;5.50;4.90;;;;;;7357767;19;20015;-60
2022/02/20 04:31:25;;;;;;;2.30;0.70;;;5.50;5.60;;;;;;7361119;19;20018;-60
2022/02/20 04:33:57;;;;;;;3.47;1.10;;;5.50;6.40;;;;;;7361670;19;20366;-60
2022/02/20 04:36:27;;;;;;;2.22;0.70;;;5.50;6.00;;;;;;7361873;19;20029;-60
2022/02/20 04:38:57;;;;;;;1.30;0.80;;;5.50;6.00;;;;;;7358876;19;20018;-60
2022/02/20 04:41:29;;;;;;;2.95;0.93;;;5.50;7.10;;;;;;7383373;19;20018;-60
2022/02/20 04:43:59;;;;;;;1.65;0.70;;;5.40;7.70;;;;;;7362430;19;20007;-60
2022/02/20 04:46:33;;;;;;;2.50;1.05;;;5.40;7.90;;;;;;7371163;19;20014;-60
2022/02/20 04:49:04;;;;;;;1.80;0.88;;;5.40;7.50;;;;;;7363045;19;20097;-59
2022/02/20 04:51:34;;;;;;;1.35;0.50;;;5.40;7.80;;;;;;7368170;19;20521;-60
2022/02/20 04:54:06;;;;;;;1.65;0.80;;;5.50;7.40;;;;;;7367794;19;20481;-61
2022/02/20 04:56:42;;;;;;;5.28;0.88;;;5.40;7.40;;;;;;7392041;19;20014;-60
2022/02/20 04:59:12;;;;;;;3.33;0.95;;;5.40;7.40;;;;;;7362155;19;20022;-61
2022/02/20 05:01:43;;;;;;;1.50;0.50;;;5.40;8.10;;;;;;7367266;19;20015;-59
2022/02/20 05:04:13;;;;;;;1.17;0.40;;;5.40;8.10;;;;;;7367460;19;20010;-62
2022/02/20 05:06:43;;;;;;;1.85;0.80;;;5.40;7.70;;;;;;7369679;19;20011;-60
2022/02/20 05:09:13;;;;;;;2.20;0.70;;;5.50;7.50;;;;;;7362091;19;20014;-60
2022/02/20 05:11:45;;;;;;;1.90;0.52;;;5.50;7.60;;;;;;7388399;19;20077;-60
2022/02/20 05:14:15;;;;;;;2.22;0.60;;;5.50;6.90;;;;;;7366334;19;20006;-59
2022/02/20 05:16:45;;;;;;;1.98;0.50;;;5.50;7.50;;;;;;7367652;19;20125;-60
2022/02/20 05:19:15;;;;;;;2.40;0.60;;;5.50;7.50;;;;;;7362125;19;20724;-60
2022/02/20 05:21:45;;;;;;;1.85;0.57;;;5.50;7.80;;;;;;7369962;19;20439;-60
2022/02/20 05:24:15;;;;;;;2.42;0.43;;;5.50;7.70;;;;;;7365927;19;20488;-60
2022/02/20 05:26:47;;;;;;;5.43;0.70;;;5.50;7.50;;;;;;7388620;19;20509;-60
2022/02/20 05:29:18;;;;;;;3.10;0.60;;;5.60;7.40;;;;;;7360834;19;20014;-60
2022/02/20 05:31:48;;;;;;;2.22;0.52;;;5.50;7.80;;;;;;7368368;19;20011;-60
2022/02/20 05:34:18;;;;;;;1.20;0.90;;;5.50;7.80;;;;;;7367362;19;20017;-60
2022/02/20 05:36:48;;;;;;;2.75;0.60;;;5.50;7.90;;;;;;7368120;19;20082;-59
2022/02/20 05:39:17;;;;;;;3.13;1.00;;;5.50;8.00;;;;;;7359693;19;20510;-60
2022/02/20 05:41:50;;;;;;;1.80;0.60;;;5.50;8.00;;;;;;7390163;19;20085;-60
2022/02/20 05:44:20;;;;;;;2.25;0.57;;;5.50;7.60;;;;;;7367702;19;20029;-59
2022/02/20 05:46:50;;;;;;;2.70;0.47;;;5.60;7.70;;;;;;7366297;19;20048;-60
2022/02/20 05:49:19;;;;;;;1.33;0.57;;;5.60;7.90;;;;;;7360017;19;20021;-60
2022/02/20 05:51:49;;;;;;;1.95;0.63;;;5.50;7.80;;;;;;7367491;19;20077;-60
2022/02/20 05:54:19;;;;;;;3.08;0.60;;;5.60;7.80;;;;;;7367782;19;20381;-60
2022/02/20 05:56:52;;;;;;;2.90;0.50;;;5.50;8.20;;;;;;7385787;19;20017;-59
2022/02/20 05:59:22;;;;;;;2.92;0.90;;;5.50;7.90;;;;;;7359727;19;20014;-60
2022/02/20 06:01:52;;;;;;;2.72;0.70;;;5.50;8.00;;;;;;7365293;19;20002;-60
2022/02/20 06:04:22;;;;;;;1.98;0.93;;;5.60;8.20;;;;;;7367915;19;20025;-60
2022/02/20 06:06:51;;;;;;;1.40;0.57;;;5.50;8.40;;;;;;7368566;19;20014;-59
2022/02/20 06:09:21;;;;;;;3.13;0.68;;;5.50;8.30;;;;;;7357746;19;20366;-60
2022/02/20 06:11:54;;;;;;;1.80;0.65;;;5.50;8.60;;;;;;7387839;19;20540;-60
2022/02/20 06:14:24;;;;;;;1.05;0.70;;;5.50;9.10;;;;;;7366596;19;20065;-60
2022/02/20 06:16:54;;;;;;;5.30;0.60;;;5.50;8.90;;;;;;7367973;19;20006;-61
2022/02/20 06:19:24;;;;;;;2.45;0.60;;;5.60;8.80;;;;;;7359982;19;20022;-60
2022/02/20 06:21:53;;;;;;;3.15;0.70;;;5.60;8.50;;;;;;7366150;19;20534;-60
2022/02/20 06:24:23;;;;;;;0.77;0.45;;;5.60;8.20;;;;;;7365857;19;20010;-60
2022/02/20 06:26:58;;;;;;;1.45;0.55;;;5.60;7.70;;;;;;7389883;19;20079;-60
2022/02/20 06:29:28;;;;;;;1.88;0.70;;;5.70;7.70;;;;;;7358365;19;20084;-60
2022/02/20 06:31:58;;;;;;;3.22;1.05;;;5.70;7.30;;;;;;7364328;19;20018;-60
2022/02/20 06:34:28;;;;;;;1.95;0.60;;;5.70;6.90;;;;;;7364563;19;20082;-60
2022/02/20 06:36:58;;;;;;;2.17;0.50;;;5.80;6.70;;;;;;7365970;19;20102;-60
2022/02/20 06:39:31;;;;;;;0.82;0.45;;;5.70;6.70;;;;;;7360287;19;20007;-60
2022/02/20 06:42:03;;;;;;;0.60;0.40;;;5.80;6.70;;;;;;7365032;19;20114;-61
2022/02/20 06:44:33;;;;;;;1.58;0.35;;;5.80;7.00;;;;;;7385569;19;20014;-60
2022/02/20 06:47:03;;;;;;;1.48;0.68;;;5.80;7.10;;;;;;7364382;19;20159;-60
2022/02/20 06:49:33;;;;;;;2.65;0.57;;;5.80;6.70;;;;;;7359844;19;20541;-60
2022/02/20 06:52:03;;;;;;;0.65;0.35;;;5.80;7.70;;;;;;7364943;19;20580;-60
2022/02/20 06:54:33;;;;;;;1.02;0.40;;;5.70;9.40;;;;;;7364131;19;20029;-60
2022/02/20 06:57:06;;;;;;;1.73;0.50;;;5.70;10.40;;;;;;7364666;19;20652;-61
2022/02/20 06:59:36;;;;;;;1.05;0.50;;;5.60;11.40;;;;;;7380312;19;20034;-60
2022/02/20 07:02:07;;;;;;;0.93;0.43;;;5.60;12.00;;;;;;7366110;19;20047;-60
2022/02/20 07:04:37;;;;;;;1.55;0.50;;;5.60;12.70;;;;;;7364243;19;20073;-60
2022/02/20 07:07:07;;;;;;;0.38;0.30;;;5.60;12.90;;;;;;7363440;19;20035;-60
2022/02/20 07:09:37;;;;;;;1.95;0.40;;;5.60;11.40;;;;;;7357258;19;20017;-60
2022/02/20 07:12:10;;;;;;;1.67;0.50;;;5.60;10.50;;;;;;7364862;19;20022;-60
2022/02/20 07:14:40;;;;;;;1.65;0.43;;;5.70;10.00;;;;;;7387363;19;20026;-60
2022/02/20 07:17:10;;;;;;;1.08;0.40;;;5.70;9.90;;;;;;7364069;19;20098;-60
2022/02/20 07:19:40;;;;;;;1.65;0.70;;;5.70;9.40;;;;;;7356864;19;20116;-60
2022/02/20 07:22:40;;;;;;;1.55;0.50;;;5.80;8.80;;;;;;7364622;19;20010;-60
2022/02/20 07:25:11;;;;;;;1.15;0.32;;;5.80;8.40;;;;;;7365010;19;20011;-60
2022/02/20 07:27:46;;;;;;;2.13;0.50;;;5.90;7.90;;;;;;7364066;19;20010;-60
2022/02/20 07:30:16;;;;;;;2.28;0.68;;;5.90;7.60;;;;;;7356774;19;20030;-60
2022/02/20 07:32:46;;;;;;;0.82;0.40;;;5.90;7.10;;;;;;7385356;19;20014;-60
2022/02/20 07:35:17;;;;;;;1.30;0.50;;;5.90;7.10;;;;;;7364027;19;20010;-60
2022/02/20 07:37:47;;;;;;;2.83;1.25;;;5.90;7.30;;;;;;7364955;19;20126;-60
2022/02/20 07:40:17;;;;;;;2.92;0.70;;;5.90;7.00;;;;;;7357643;19;20462;-60
2022/02/20 07:42:49;;;;;;;1.85;0.63;;;6.00;7.00;;;;;;7362570;19;20010;-60
2022/02/20 07:45:23;;;;;;;0.65;0.40;;;6.00;7.20;;;;;;7363689;19;20926;-60
2022/02/20 07:47:56;;;;;;;2.07;0.93;;;6.10;6.50;;;;;;7385852;19;20014;-60
2022/02/20 07:50:28;;;;;;;2.78;0.50;;;6.10;6.90;;;;;;7356580;19;20015;-61
2022/02/20 07:52:58;;;;;;;1.50;0.30;;;6.20;6.50;;;;;;7361671;19;21370;-61
2022/02/20 07:55:30;;;;;;;1.33;0.40;;;6.20;6.00;;;;;;7361763;19;20078;-60
2022/02/20 07:58:03;;;;;;;1.25;0.45;;;6.20;6.00;;;;;;7363659;19;20109;-60
2022/02/20 08:00:33;;;;;;;2.67;0.55;;;6.20;5.70;;;;;;7357948;19;20014;-60
2022/02/20 08:03:04;;;;;;;1.00;0.47;;;6.30;5.80;;;;;;7361729;19;20371;-61
2022/02/20 08:05:34;;;;;;;1.20;0.50;;;6.30;5.60;;;;;;7384162;19;20014;-61
2022/02/20 08:08:03;;;;;;;1.20;0.47;;;6.40;5.20;;;;;;7361491;19;20081;-61
2022/02/20 08:10:33;;;;;;;1.58;0.40;;;6.40;5.30;;;;;;7358512;19;20040;-61
2022/02/20 08:13:06;;;;;;;1.25;0.50;;;6.50;5.10;;;;;;7363797;19;20013;-61
2022/02/20 08:15:36;;;;;;;2.08;0.60;;;6.70;4.30;;;;;;7361879;19;20021;-60
2022/02/20 08:18:06;;;;;;;2.20;0.47;;;6.80;2.90;;;;;;7362016;19;20093;-60
2022/02/20 08:20:35;;;;;;;2.95;0.70;;;7.00;2.90;;;;;;7377942;19;20021;-61
2022/02/20 08:23:05;;;;;;;1.30;0.40;;;6.90;2.00;;;;;;7362743;19;20087;-61
2022/02/20 08:25:37;;;;;;;0.90;0.55;;;7.00;1.80;;;;;;7362943;19;20007;-61
2022/02/20 08:28:10;;;;;;;1.92;0.77;;;7.10;1.30;;;;;;7362310;19;20094;-60
2022/02/20 08:30:40;;;;;;;0.82;0.52;;;7.20;1.20;;;;;;7355969;19;20492;-60
2022/02/20 08:33:10;;;;;;;0.95;0.50;;;7.10;1.00;;;;;;7362570;19;20115;-61
2022/02/20 08:35:39;;;;;;;2.75;0.50;;;7.10;1.00;;;;;;7383338;19;20782;-61
2022/02/20 08:38:09;;;;;;;2.35;0.70;;;7.10;1.00;;;;;;7359951;19;20011;-61
2022/02/20 08:40:42;;;;;;;2.90;1.00;;;7.20;1.00;;;;;;7356383;19;20086;-61
2022/02/20 08:43:14;;;;;;;1.38;0.65;;;7.20;1.00;;;;;;7361476;19;20010;-60
2022/02/20 08:45:47;;;;;;;2.22;1.00;;;7.30;1.00;;;;;;7361770;19;20090;-59
2022/02/20 08:48:18;;;;;;;3.00;1.05;;;7.30;1.00;;;;;;7359992;19;20018;-61
2022/02/20 08:50:48;;;;;;;1.17;0.60;;;7.40;1.00;;;;;;7376510;19;20018;-60
2022/02/20 08:53:18;;;;;;;2.88;0.90;;;7.50;1.00;;;;;;7360858;19;20021;-61
2022/02/20 08:55:48;;;;;;;3.38;0.60;;;7.60;1.00;;;;;;7361570;19;20018;-60
2022/02/20 08:58:20;;;;;;;2.30;0.68;;;7.60;1.00;;;;;;7360260;19;20014;-61
2022/02/20 09:00:50;;;;;;;1.20;0.55;;;7.70;1.00;;;;;;7355052;19;20011;-61
2022/02/20 09:03:20;;;;;;;2.35;0.73;;;7.70;1.00;;;;;;7358969;19;20378;-60
2022/02/20 09:05:50;;;;;;;3.33;0.80;;;7.70;1.00;;;;;;7383042;19;20631;-61
2022/02/20 09:08:20;;;;;;;3.13;0.73;;;7.70;1.00;;;;;;7361663;19;20014;-60
2022/02/20 09:10:50;;;;;;;1.70;0.70;;;7.80;1.00;;;;;;7355657;19;20026;-61
2022/02/20 09:13:25;;;;;;;3.38;0.85;;;7.90;1.00;;;;;;7357799;19;20074;-61
2022/02/20 09:15:54;;;;;;;1.17;0.50;;;8.00;1.00;;;;;;7361217;19;20021;-61
2022/02/20 09:18:25;;;;;;;1.90;0.60;;;7.90;1.00;;;;;;7360068;19;20085;-60
2022/02/20 09:20:55;;;;;;;1.25;0.57;;;7.90;1.00;;;;;;7374263;19;20018;-66
2022/02/20 09:23:25;;;;;;;1.85;0.50;;;7.90;1.00;;;;;;7379626;19;20010;-60
2022/02/20 09:25:55;;;;;;;1.05;0.60;;;8.00;1.00;;;;;;7358750;19;20022;-61
2022/02/20 09:28:30;;;;;;;3.55;0.70;;;8.10;1.00;;;;;;7359582;19;20019;-59
2022/02/20 09:31:01;;;;;;;2.05;0.60;;;8.10;1.00;;;;;;7357132;19;20022;-61
2022/02/20 09:33:30;;;;;;;2.25;0.88;;;8.30;1.00;;;;;;7365130;19;20082;-60
2022/02/20 09:36:00;;;;;;;1.85;0.70;;;8.40;1.00;;;;;;7366368;19;20074;-61
2022/02/20 09:38:30;;;;;;;1.90;0.60;;;8.40;1.00;;;;;;7387551;19;20015;-61
2022/02/20 09:41:00;;;;;;;2.45;0.63;;;8.40;1.00;;;;;;7362515;19;20130;-62
2022/02/20 09:43:35;;;;;;;1.30;0.75;;;8.30;1.00;;;;;;7366346;19;20090;-61
2022/02/20 09:46:06;;;;;;;1.00;0.40;;;8.30;1.00;;;;;;7365642;19;20494;-59
2022/02/20 09:48:36;;;;;;;1.98;0.68;;;8.40;1.00;;;;;;7365723;19;20090;-61
2022/02/20 09:51:06;;;;;;;1.15;0.50;;;8.30;1.00;;;;;;7360864;19;20350;-61
2022/02/20 09:53:37;;;;;;;1.85;0.40;;;8.30;1.00;;;;;;7387173;19;20038;-61
2022/02/20 09:56:07;;;;;;;2.00;0.50;;;8.30;1.00;;;;;;7365046;19;20023;-61
2022/02/20 09:58:40;;;;;;;0.68;0.45;;;8.40;1.00;;;;;;7363564;19;20011;-60
2022/02/20 10:01:12;;;;;;;1.15;0.40;;;8.30;1.00;;;;;;7359572;19;20130;-61
2022/02/20 10:03:44;;;;;;;0.63;0.40;;;8.30;1.00;;;;;;7366923;19;20027;-61
2022/02/20 10:06:16;;;;;;;2.03;0.50;;;8.30;1.00;;;;;;7368401;19;20096;-60
2022/02/20 10:08:47;;;;;;;2.75;0.35;;;8.40;1.00;;;;;;7386306;19;20126;-60
2022/02/20 10:11:20;;;;;;;1.90;0.70;;;8.40;1.00;;;;;;7361261;19;20062;-61
2022/02/20 10:13:54;;;;;;;2.28;0.52;;;8.50;1.00;;;;;;7363813;19;20010;-60
2022/02/20 10:16:26;;;;;;;0.40;0.30;;;8.60;1.00;;;;;;7368228;19;20003;-60
2022/02/20 10:18:58;;;;;;;0.65;0.35;;;8.70;1.00;;;;;;7362289;19;20015;-61
2022/02/20 10:21:30;;;;;;;0.70;0.30;;;8.60;1.00;;;;;;7362862;19;20496;-59
2022/02/20 10:24:09;;;;;;;0.73;0.43;;;8.60;1.00;;;;;;7364469;19;20070;-61
2022/02/20 10:26:44;;;;;;;3.92;0.90;;;8.80;1.00;;;;;;7388106;19;20022;-62
2022/02/20 10:29:20;;;;;;;1.15;0.60;;;8.90;1.00;;;;;;7361968;19;20096;-61
2022/02/20 10:31:53;;;;;;;1.05;0.45;;;8.90;1.00;;;;;;7362966;19;20358;-61
2022/02/20 10:34:24;;;;;;;4.30;0.70;;;9.10;1.00;;;;;;7363135;19;20010;-61
2022/02/20 10:36:57;;;;;;;2.22;0.70;;;9.10;1.00;;;;;;7365555;19;20512;-61
2022/02/20 10:39:30;;;;;;;1.25;0.40;;;9.30;1.00;;;;;;7361910;19;20495;-61
2022/02/20 10:42:02;;;;;;;1.50;0.60;;;9.40;1.00;;;;;;7362242;19;20064;-60
2022/02/20 10:44:49;;;;;;;1.42;0.43;;;9.10;1.00;;;;;;7383903;19;20105;-60
2022/02/20 10:47:19;;;;;;;0.80;0.30;;;9.30;1.00;;;;;;7363968;19;20017;-61
2022/02/20 10:49:54;;;;;;;0.40;0.40;;;9.30;1.00;;;;;;7356215;19;20022;-60
2022/02/20 10:52:27;;;;;;;1.75;0.35;;;9.40;1.00;;;;;;7364823;19;20018;-60
2022/02/20 10:55:06;;;;;;;1.08;0.60;;;9.40;1.00;;;;;;7363259;19;20783;-60
2022/02/20 10:57:51;;;;;;;0.52;0.45;;;9.50;1.00;;;;;;7362832;19;20106;-61
2022/02/20 11:00:25;;;;;;;1.23;0.52;;;9.50;1.00;;;;;;7358404;19;20011;-61
2022/02/20 11:03:08;;;;;;;0.80;0.50;;;9.50;1.00;;;;;;7383935;19;20095;-60
2022/02/20 11:05:39;;;;;;;0.82;0.45;;;9.60;1.00;;;;;;7364422;19;20419;-61
2022/02/20 11:08:10;;;;;;;0.60;0.50;;;9.50;1.00;;;;;;7364483;19;20088;-61
2022/02/20 11:10:41;;;;;;;1.55;0.80;;;9.70;1.00;;;;;;7357888;19;20479;-60
2022/02/20 11:13:13;;;;;;;2.80;0.70;;;9.60;1.00;;;;;;7363029;19;20013;-61
2022/02/20 11:15:48;;;;;;;1.42;0.50;;;9.50;1.00;;;;;;7363495;19;20769;-62
2022/02/20 11:18:21;;;;;;;;;;;9.50;1.00;;;;;;7364049;19;20486;-60
2022/02/20 11:20:53;;;;;;;1.20;0.50;;;9.60;1.00;;;;;;7381619;19;19980;-61
2022/02/20 11:23:26;;;;;;;1.42;0.43;;;9.60;1.00;;;;;;7359276;19;20078;-61
2022/02/20 11:25:59;;;;;;;0.28;0.22;;;9.60;1.00;;;;;;7360816;19;20758;-61
2022/02/20 11:28:29;;;;;;;1.27;0.50;;;9.70;1.00;;;;;;7363149;19;20018;-61
2022/02/20 11:31:02;;;;;;;0.88;0.43;;;9.60;1.00;;;;;;7359463;19;20011;-61
2022/02/20 11:33:32;;;;;;;1.63;0.40;;;9.70;1.00;;;;;;7362441;19;20027;-60
2022/02/20 11:36:03;;;;;;;1.25;0.40;;;9.70;1.00;;;;;;7364079;19;20062;-61
2022/02/20 11:38:33;;;;;;;1.25;0.60;;;9.70;1.00;;;;;;7383467;19;20784;-61
2022/02/20 11:41:04;;;;;;;1.13;0.45;;;9.60;1.00;;;;;;7357854;19;20360;-61
2022/02/20 11:43:44;;;;;;;1.50;0.40;;;9.70;1.00;;;;;;7362820;19;20054;-61
2022/02/20 11:46:20;;;;;;;1.23;0.47;;;9.60;1.00;;;;;;7363848;19;20755;-60
2022/02/20 11:49:26;;;;;;;1.02;0.60;;;9.60;1.00;;;;;;7359058;19;20468;-61
2022/02/20 11:52:06;;;;;;;0.93;0.32;;;9.60;1.00;;;;;;7360101;19;20081;-62
2022/02/20 11:54:37;;;;;;;0.77;0.40;;;9.50;1.00;;;;;;7359582;19;20086;-62
2022/02/20 11:57:30;;;;;;;1.92;0.40;;;9.60;1.00;;;;;;7364782;19;20010;-61
2022/02/20 12:00:18;;;;;;;1.45;0.43;;;9.60;1.00;;;;;;7356037;19;20104;-62
2022/02/20 12:03:17;;;;;;;1.25;0.75;;;9.70;1.00;;;;;;7383087;19;20007;-61
2022/02/20 12:06:24;;;;;;;1.95;0.95;;;9.50;1.00;;;;;;7360742;19;20019;-61
2022/02/20 12:08:58;;;;;;;0.85;0.50;;;9.70;1.00;;;;;;7256261;19;2004492;-61
2022/02/20 12:11:32;;;;;;;2.97;0.52;;;9.70;1.00;;;;;;7381925;19;20022;-61
2022/02/20 12:14:14;;;;;;;0.93;0.32;;;9.50;1.00;;;;;;7359542;19;20009;-61
2022/02/20 12:16:50;;;;;;;2.63;0.50;;;9.60;1.00;;;;;;7363164;19;20010;-60
2022/02/20 12:19:26;;;;;;;0.88;0.38;;;9.60;1.00;;;;;;7359171;19;20194;-61
2022/02/20 12:22:04;;;;;;;0.80;0.38;;;9.60;1.00;;;;;;7359001;19;20010;-61
2022/02/20 12:25:04;;;;;;;0.60;0.40;;;9.60;1.00;;;;;;7358259;19;20011;-61
2022/02/20 12:27:41;;;;;;;2.03;0.88;;;9.70;1.00;;;;;;7361530;19;20007;-61
2022/02/20 12:30:17;;;;;;;0.22;0.20;;;9.70;1.00;;;;;;7355195;19;20035;-61
2022/02/20 12:32:51;;;;;;;2.45;0.40;;;9.60;1.00;;;;;;7384028;19;20035;-61
2022/02/20 12:35:26;;;;;;;2.38;0.63;;;9.60;1.00;;;;;;7361756;19;20014;-61
2022/02/20 12:37:57;;;;;;;1.52;0.40;;;9.70;1.00;;;;;;7361093;19;20010;-62
2022/02/20 12:40:29;;;;;;;1.33;0.40;;;9.60;1.00;;;;;;7354457;19;20422;-61
2022/02/20 12:43:03;;;;;;;1.95;0.50;;;9.60;1.00;;;;;;7361163;19;20108;-61
2022/02/20 12:45:35;;;;;;;5.40;0.75;;;9.70;1.00;;;;;;7361488;19;20822;-62
2022/02/20 12:48:08;;;;;;;0.70;0.35;;;9.70;1.00;;;;;;7360295;19;20022;-62
2022/02/20 12:50:43;;;;;;;1.65;0.50;;;9.70;1.00;;;;;;7375993;19;20697;-61
2022/02/20 12:53:13;;;;;;;1.83;0.57;;;9.90;1.00;;;;;;7359376;19;20474;-61
2022/02/20 12:55:43;;;;;;;1.85;0.55;;;10.00;1.00;;;;;;7351229;19;20077;-61
2022/02/20 12:58:17;;;;;;;1.80;0.80;;;10.00;1.00;;;;;;7352204;19;20037;-62
2022/02/20 13:00:49;;;;;;;2.67;0.70;;;10.00;1.00;;;;;;7347554;19;20019;-62
2022/02/20 13:03:22;;;;;;;0.98;0.40;;;9.90;1.00;;;;;;7351011;19;20039;-61
2022/02/20 13:05:57;;;;;;;2.47;0.77;;;9.90;1.00;;;;;;7373482;19;20366;-61
2022/02/20 13:08:30;;;;;;;4.53;1.17;;;10.00;1.00;;;;;;7355990;19;20014;-60
2022/02/20 13:11:00;;;;;;;3.75;0.75;;;10.00;1.00;;;;;;7351214;19;20015;-62
2022/02/20 13:13:32;;;;;;;1.13;0.50;;;10.10;1.00;;;;;;7359382;19;20667;-61
2022/02/20 13:16:05;;;;;;;3.00;0.63;;;9.90;1.00;;;;;;7357643;19;20085;-61
2022/02/20 13:18:38;;;;;;;2.05;0.60;;;9.90;1.00;;;;;;7356170;19;20014;-61
2022/02/20 13:21:15;;;;;;;0.55;0.30;;;9.90;1.00;;;;;;7355106;19;20018;-61
2022/02/20 13:23:47;;;;;;;0.73;0.30;;;9.90;1.00;;;;;;7379993;19;20530;-61
2022/02/20 13:26:18;;;;;;;1.65;0.40;;;9.80;1.00;;;;;;7359262;19;20063;-62
2022/02/20 13:28:50;;;;;;;1.15;0.40;;;9.90;1.00;;;;;;7355633;19;20039;-62
2022/02/20 13:31:22;;;;;;;12.02;0.68;;;9.80;1.00;;;;;;7361408;19;20013;-61
2022/02/20 13:33:53;;;;;;;1.20;0.50;;;9.80;1.00;;;;;;7365723;19;20097;-61
2022/02/20 13:36:27;;;;;;;0.70;0.45;;;9.90;1.00;;;;;;7366686;19;20078;-61
2022/02/20 13:39:08;;;;;;;1.52;0.50;;;10.10;1.00;;;;;;7362219;19;20018;-62
2022/02/20 13:41:39;;;;;;;1.08;0.45;;;10.10;1.00;;;;;;7383715;19;20018;-59
2022/02/20 13:44:25;;;;;;;1.20;0.40;;;9.90;1.00;;;;;;7364470;19;20086;-61
2022/02/20 13:47:05;;;;;;;2.88;0.60;;;9.80;1.00;;;;;;7364365;19;20014;-61
2022/02/20 13:49:36;;;;;;;5.35;0.70;;;9.80;1.00;;;;;;7361952;19;20086;-61
2022/02/20 13:52:08;;;;;;;1.85;0.40;;;9.90;1.00;;;;;;7364962;19;20037;-62
2022/02/20 13:54:39;;;;;;;0.88;0.60;;;9.90;1.00;;;;;;7364708;19;20086;-60
2022/02/20 13:57:09;;;;;;;3.10;0.50;;;9.90;1.00;;;;;;7364687;19;20014;-61
2022/02/20 13:59:47;;;;;;;1.55;0.50;;;9.90;1.00;;;;;;7381911;19;20010;-62
2022/02/20 14:02:18;;;;;;;3.05;0.45;;;9.90;1.00;;;;;;7363079;19;20478;-60